sensor_id;sensor_type;location;lat;lon;timestamp;P1;durP1;ratioP1;P2;durP2;ratioP2
12296;SDS011;6211;49.124;9.152;2022-10-16T00:02:25;191.25;;;179.82;;
12296;SDS011;6211;49.124;9.152;2022-10-16T00:04:52;245.30;;;230.80;;
12296;SDS011;6211;49.124;9.152;2022-10-16T00:07:19;158.10;;;149.00;;
12296;SDS011;6211;49.124;9.152;2022-10-16T00:09:46;178.48;;;168.18;;
12296;SDS011;6211;49.124;9.152;2022-10-16T00:12:15;163.45;;;153.45;;
12296;SDS011;6211;49.124;9.152;2022-10-16T00:14:42;220.32;;;207.55;;
12296;SDS011;6211;49.124;9.152;2022-10-16T00:17:09;219.48;;;206.20;;
12296;SDS011;6211;49.124;9.152;2022-10-16T00:19:36;200.88;;;189.85;;
12296;SDS011;6211;49.124;9.152;2022-10-16T00:22:03;156.43;;;147.00;;
12296;SDS011;6211;49.124;9.152;2022-10-16T00:24:30;146.55;;;137.32;;
12296;SDS011;6211;49.124;9.152;2022-10-16T00:26:57;211.32;;;198.25;;
12296;SDS011;6211;49.124;9.152;2022-10-16T00:29:26;210.60;;;199.20;;
12296;SDS011;6211;49.124;9.152;2022-10-16T00:31:53;155.45;;;146.00;;
12296;SDS011;6211;49.124;9.152;2022-10-16T00:34:20;191.65;;;180.02;;
12296;SDS011;6211;49.124;9.152;2022-10-16T00:36:47;199.38;;;186.68;;
12296;SDS011;6211;49.124;9.152;2022-10-16T00:39:14;205.30;;;192.45;;
12296;SDS011;6211;49.124;9.152;2022-10-16T00:41:41;189.75;;;178.90;;
12296;SDS011;6211;49.124;9.152;2022-10-16T00:46:56;175.65;;;165.40;;
12296;SDS011;6211;49.124;9.152;2022-10-16T00:49:23;165.02;;;155.45;;
12296;SDS011;6211;49.124;9.152;2022-10-16T00:51:51;246.30;;;231.75;;
12296;SDS011;6211;49.124;9.152;2022-10-16T00:54:19;161.90;;;152.38;;
12296;SDS011;6211;49.124;9.152;2022-10-16T00:56:47;180.75;;;170.05;;
12296;SDS011;6211;49.124;9.152;2022-10-16T00:59:16;201.75;;;189.50;;
12296;SDS011;6211;49.124;9.152;2022-10-16T01:01:43;240.90;;;227.18;;
12296;SDS011;6211;49.124;9.152;2022-10-16T01:04:12;217.38;;;203.63;;
12296;SDS011;6211;49.124;9.152;2022-10-16T01:06:40;178.00;;;168.27;;
12296;SDS011;6211;49.124;9.152;2022-10-16T01:09:11;242.98;;;228.68;;
12296;SDS011;6211;49.124;9.152;2022-10-16T01:11:41;197.82;;;186.27;;
12296;SDS011;6211;49.124;9.152;2022-10-16T01:14:11;172.05;;;161.85;;
12296;SDS011;6211;49.124;9.152;2022-10-16T01:16:43;254.18;;;238.95;;
12296;SDS011;6211;49.124;9.152;2022-10-16T01:19:14;241.18;;;227.45;;
12296;SDS011;6211;49.124;9.152;2022-10-16T01:21:44;165.18;;;155.07;;
12296;SDS011;6211;49.124;9.152;2022-10-16T01:24:14;189.80;;;178.95;;
12296;SDS011;6211;49.124;9.152;2022-10-16T01:26:50;203.30;;;190.63;;
12296;SDS011;6211;49.124;9.152;2022-10-16T01:29:22;239.38;;;224.88;;
12296;SDS011;6211;49.124;9.152;2022-10-16T01:31:53;176.27;;;165.32;;
12296;SDS011;6211;49.124;9.152;2022-10-16T01:34:22;136.10;;;128.30;;
12296;SDS011;6211;49.124;9.152;2022-10-16T01:36:53;162.13;;;152.73;;
12296;SDS011;6211;49.124;9.152;2022-10-16T01:39:22;219.52;;;206.13;;
12296;SDS011;6211;49.124;9.152;2022-10-16T01:41:51;176.05;;;165.65;;
12296;SDS011;6211;49.124;9.152;2022-10-16T01:44:22;122.82;;;114.93;;
12296;SDS011;6211;49.124;9.152;2022-10-16T01:46:52;235.20;;;221.50;;
12296;SDS011;6211;49.124;9.152;2022-10-16T01:49:20;202.93;;;191.48;;
12296;SDS011;6211;49.124;9.152;2022-10-16T01:51:49;223.23;;;210.00;;
12296;SDS011;6211;49.124;9.152;2022-10-16T01:54:17;212.30;;;200.25;;
12296;SDS011;6211;49.124;9.152;2022-10-16T01:56:46;146.95;;;138.82;;
12296;SDS011;6211;49.124;9.152;2022-10-16T01:59:15;266.70;;;251.52;;
12296;SDS011;6211;49.124;9.152;2022-10-16T02:01:46;185.35;;;173.68;;
12296;SDS011;6211;49.124;9.152;2022-10-16T02:04:18;201.30;;;189.15;;
12296;SDS011;6211;49.124;9.152;2022-10-16T02:06:47;214.40;;;201.50;;
12296;SDS011;6211;49.124;9.152;2022-10-16T02:09:14;204.65;;;192.40;;
12296;SDS011;6211;49.124;9.152;2022-10-16T02:11:41;201.43;;;188.45;;
12296;SDS011;6211;49.124;9.152;2022-10-16T02:14:09;191.48;;;178.93;;
12296;SDS011;6211;49.124;9.152;2022-10-16T02:16:38;191.93;;;179.65;;
12296;SDS011;6211;49.124;9.152;2022-10-16T02:19:06;185.32;;;174.00;;
12296;SDS011;6211;49.124;9.152;2022-10-16T02:21:36;206.15;;;193.77;;
12296;SDS011;6211;49.124;9.152;2022-10-16T02:24:08;170.13;;;159.75;;
12296;SDS011;6211;49.124;9.152;2022-10-16T02:26:37;210.88;;;198.50;;
12296;SDS011;6211;49.124;9.152;2022-10-16T02:29:08;247.80;;;232.80;;
12296;SDS011;6211;49.124;9.152;2022-10-16T02:31:38;188.57;;;176.55;;
12296;SDS011;6211;49.124;9.152;2022-10-16T02:34:08;169.57;;;159.15;;
12296;SDS011;6211;49.124;9.152;2022-10-16T02:36:37;260.33;;;244.30;;
12296;SDS011;6211;49.124;9.152;2022-10-16T02:39:05;228.40;;;214.10;;
12296;SDS011;6211;49.124;9.152;2022-10-16T02:41:32;194.65;;;182.13;;
12296;SDS011;6211;49.124;9.152;2022-10-16T02:43:59;192.88;;;180.23;;
12296;SDS011;6211;49.124;9.152;2022-10-16T02:46:26;201.30;;;188.13;;
12296;SDS011;6211;49.124;9.152;2022-10-16T02:48:53;207.88;;;193.88;;
12296;SDS011;6211;49.124;9.152;2022-10-16T02:51:22;217.15;;;204.35;;
12296;SDS011;6211;49.124;9.152;2022-10-16T02:53:49;206.65;;;194.50;;
12296;SDS011;6211;49.124;9.152;2022-10-16T02:56:16;146.18;;;136.25;;
12296;SDS011;6211;49.124;9.152;2022-10-16T02:58:43;259.35;;;244.50;;
12296;SDS011;6211;49.124;9.152;2022-10-16T03:01:11;203.52;;;190.98;;
12296;SDS011;6211;49.124;9.152;2022-10-16T03:03:39;180.90;;;169.23;;
12296;SDS011;6211;49.124;9.152;2022-10-16T03:06:06;172.10;;;161.85;;
12296;SDS011;6211;49.124;9.152;2022-10-16T03:08:34;217.60;;;203.98;;
12296;SDS011;6211;49.124;9.152;2022-10-16T03:11:01;190.30;;;179.13;;
12296;SDS011;6211;49.124;9.152;2022-10-16T03:13:29;180.13;;;169.15;;
12296;SDS011;6211;49.124;9.152;2022-10-16T03:15:56;135.63;;;127.28;;
12296;SDS011;6211;49.124;9.152;2022-10-16T03:18:23;229.45;;;215.68;;
12296;SDS011;6211;49.124;9.152;2022-10-16T03:20:50;206.20;;;192.85;;
12296;SDS011;6211;49.124;9.152;2022-10-16T03:23:17;204.20;;;191.55;;
12296;SDS011;6211;49.124;9.152;2022-10-16T03:25:45;183.18;;;172.30;;
12296;SDS011;6211;49.124;9.152;2022-10-16T03:28:12;211.88;;;198.48;;
12296;SDS011;6211;49.124;9.152;2022-10-16T03:30:39;163.40;;;153.32;;
12296;SDS011;6211;49.124;9.152;2022-10-16T03:33:07;190.38;;;177.90;;
12296;SDS011;6211;49.124;9.152;2022-10-16T03:35:34;224.38;;;209.52;;
12296;SDS011;6211;49.124;9.152;2022-10-16T03:38:01;238.38;;;223.70;;
12296;SDS011;6211;49.124;9.152;2022-10-16T03:40:28;187.75;;;176.45;;
12296;SDS011;6211;49.124;9.152;2022-10-16T03:42:58;190.63;;;178.52;;
12296;SDS011;6211;49.124;9.152;2022-10-16T03:45:25;196.35;;;184.40;;
12296;SDS011;6211;49.124;9.152;2022-10-16T03:47:52;201.93;;;188.77;;
12296;SDS011;6211;49.124;9.152;2022-10-16T03:50:19;177.63;;;166.40;;
12296;SDS011;6211;49.124;9.152;2022-10-16T03:52:46;184.60;;;172.65;;
12296;SDS011;6211;49.124;9.152;2022-10-16T03:55:14;205.18;;;191.65;;
12296;SDS011;6211;49.124;9.152;2022-10-16T03:57:41;231.55;;;217.90;;
12296;SDS011;6211;49.124;9.152;2022-10-16T04:00:11;193.10;;;181.90;;
12296;SDS011;6211;49.124;9.152;2022-10-16T04:02:38;182.02;;;170.82;;
12296;SDS011;6211;49.124;9.152;2022-10-16T04:05:06;142.52;;;133.10;;
12296;SDS011;6211;49.124;9.152;2022-10-16T04:07:33;181.45;;;170.02;;
12296;SDS011;6211;49.124;9.152;2022-10-16T04:10:00;182.95;;;170.68;;
12296;SDS011;6211;49.124;9.152;2022-10-16T04:12:27;170.10;;;159.30;;
12296;SDS011;6211;49.124;9.152;2022-10-16T04:14:54;169.70;;;159.70;;
12296;SDS011;6211;49.124;9.152;2022-10-16T04:17:23;177.65;;;166.95;;
12296;SDS011;6211;49.124;9.152;2022-10-16T04:19:50;186.80;;;175.35;;
12296;SDS011;6211;49.124;9.152;2022-10-16T04:22:17;132.23;;;124.40;;
12296;SDS011;6211;49.124;9.152;2022-10-16T04:24:44;218.10;;;205.93;;
12296;SDS011;6211;49.124;9.152;2022-10-16T04:27:12;165.13;;;155.13;;
12296;SDS011;6211;49.124;9.152;2022-10-16T04:29:39;172.40;;;160.98;;
12296;SDS011;6211;49.124;9.152;2022-10-16T04:32:07;198.70;;;187.10;;
12296;SDS011;6211;49.124;9.152;2022-10-16T04:34:36;201.25;;;188.63;;
12296;SDS011;6211;49.124;9.152;2022-10-16T04:37:04;218.93;;;204.88;;
12296;SDS011;6211;49.124;9.152;2022-10-16T04:39:31;193.80;;;181.80;;
12296;SDS011;6211;49.124;9.152;2022-10-16T04:41:58;168.90;;;158.30;;
12296;SDS011;6211;49.124;9.152;2022-10-16T04:44:25;161.60;;;151.48;;
12296;SDS011;6211;49.124;9.152;2022-10-16T04:46:52;182.13;;;170.75;;
12296;SDS011;6211;49.124;9.152;2022-10-16T04:49:19;225.27;;;210.75;;
12296;SDS011;6211;49.124;9.152;2022-10-16T04:51:48;213.35;;;199.70;;
12296;SDS011;6211;49.124;9.152;2022-10-16T04:54:15;180.70;;;169.60;;
12296;SDS011;6211;49.124;9.152;2022-10-16T04:56:42;209.40;;;196.38;;
12296;SDS011;6211;49.124;9.152;2022-10-16T04:59:12;174.02;;;163.50;;
12296;SDS011;6211;49.124;9.152;2022-10-16T05:01:39;184.05;;;172.05;;
12296;SDS011;6211;49.124;9.152;2022-10-16T05:04:06;134.88;;;126.38;;
12296;SDS011;6211;49.124;9.152;2022-10-16T05:06:33;152.32;;;142.80;;
12296;SDS011;6211;49.124;9.152;2022-10-16T05:09:02;182.38;;;172.20;;
12296;SDS011;6211;49.124;9.152;2022-10-16T05:11:29;184.18;;;173.27;;
12296;SDS011;6211;49.124;9.152;2022-10-16T05:13:56;196.32;;;184.23;;
12296;SDS011;6211;49.124;9.152;2022-10-16T05:16:23;204.57;;;192.50;;
12296;SDS011;6211;49.124;9.152;2022-10-16T05:18:51;196.77;;;185.00;;
12296;SDS011;6211;49.124;9.152;2022-10-16T05:21:18;183.13;;;171.88;;
12296;SDS011;6211;49.124;9.152;2022-10-16T05:23:45;203.32;;;191.45;;
12296;SDS011;6211;49.124;9.152;2022-10-16T05:26:13;150.00;;;140.98;;
12296;SDS011;6211;49.124;9.152;2022-10-16T05:28:40;190.98;;;178.77;;
12296;SDS011;6211;49.124;9.152;2022-10-16T05:31:08;216.93;;;204.45;;
12296;SDS011;6211;49.124;9.152;2022-10-16T05:33:35;171.75;;;160.73;;
12296;SDS011;6211;49.124;9.152;2022-10-16T05:36:03;179.60;;;168.50;;
12296;SDS011;6211;49.124;9.152;2022-10-16T05:38:30;207.68;;;194.63;;
12296;SDS011;6211;49.124;9.152;2022-10-16T05:40:57;189.70;;;177.40;;
12296;SDS011;6211;49.124;9.152;2022-10-16T05:43:26;143.90;;;134.63;;
12296;SDS011;6211;49.124;9.152;2022-10-16T05:45:54;213.43;;;200.40;;
12296;SDS011;6211;49.124;9.152;2022-10-16T05:48:21;227.27;;;212.00;;
12296;SDS011;6211;49.124;9.152;2022-10-16T05:50:55;184.48;;;173.02;;
12296;SDS011;6211;49.124;9.152;2022-10-16T05:53:23;188.48;;;176.57;;
12296;SDS011;6211;49.124;9.152;2022-10-16T05:55:51;198.68;;;185.77;;
12296;SDS011;6211;49.124;9.152;2022-10-16T05:58:18;202.95;;;190.57;;
12296;SDS011;6211;49.124;9.152;2022-10-16T06:00:53;165.60;;;154.45;;
12296;SDS011;6211;49.124;9.152;2022-10-16T06:03:20;201.95;;;189.70;;
12296;SDS011;6211;49.124;9.152;2022-10-16T06:05:47;190.90;;;179.57;;
12296;SDS011;6211;49.124;9.152;2022-10-16T06:08:14;137.63;;;128.43;;
12296;SDS011;6211;49.124;9.152;2022-10-16T06:10:42;206.60;;;194.60;;
12296;SDS011;6211;49.124;9.152;2022-10-16T06:13:09;172.90;;;161.70;;
12296;SDS011;6211;49.124;9.152;2022-10-16T06:15:37;157.88;;;147.98;;
12296;SDS011;6211;49.124;9.152;2022-10-16T06:18:08;161.82;;;151.45;;
12296;SDS011;6211;49.124;9.152;2022-10-16T06:20:35;169.32;;;158.70;;
12296;SDS011;6211;49.124;9.152;2022-10-16T06:23:02;267.38;;;250.82;;
12296;SDS011;6211;49.124;9.152;2022-10-16T06:25:30;165.88;;;155.15;;
12296;SDS011;6211;49.124;9.152;2022-10-16T06:27:57;198.23;;;186.27;;
12296;SDS011;6211;49.124;9.152;2022-10-16T06:30:24;175.02;;;164.50;;
12296;SDS011;6211;49.124;9.152;2022-10-16T06:32:51;202.65;;;190.27;;
12296;SDS011;6211;49.124;9.152;2022-10-16T06:35:20;190.63;;;178.35;;
12296;SDS011;6211;49.124;9.152;2022-10-16T06:37:47;143.50;;;134.18;;
12296;SDS011;6211;49.124;9.152;2022-10-16T06:40:14;149.65;;;140.43;;
12296;SDS011;6211;49.124;9.152;2022-10-16T06:42:41;183.65;;;171.18;;
12296;SDS011;6211;49.124;9.152;2022-10-16T06:45:09;196.32;;;183.57;;
12296;SDS011;6211;49.124;9.152;2022-10-16T06:47:36;170.30;;;158.70;;
12296;SDS011;6211;49.124;9.152;2022-10-16T06:50:04;127.03;;;119.15;;
12296;SDS011;6211;49.124;9.152;2022-10-16T06:52:34;148.70;;;139.23;;
12296;SDS011;6211;49.124;9.152;2022-10-16T06:55:01;217.40;;;203.65;;
12296;SDS011;6211;49.124;9.152;2022-10-16T06:57:28;167.40;;;157.00;;
12296;SDS011;6211;49.124;9.152;2022-10-16T06:59:56;206.98;;;194.45;;
12296;SDS011;6211;49.124;9.152;2022-10-16T07:02:23;149.82;;;139.77;;
12296;SDS011;6211;49.124;9.152;2022-10-16T07:04:50;169.73;;;158.23;;
12296;SDS011;6211;49.124;9.152;2022-10-16T07:07:17;203.70;;;191.23;;
12296;SDS011;6211;49.124;9.152;2022-10-16T07:09:45;198.70;;;186.55;;
12296;SDS011;6211;49.124;9.152;2022-10-16T07:12:12;190.93;;;178.55;;
12296;SDS011;6211;49.124;9.152;2022-10-16T07:14:40;190.63;;;178.75;;
12296;SDS011;6211;49.124;9.152;2022-10-16T07:17:07;185.70;;;173.75;;
12296;SDS011;6211;49.124;9.152;2022-10-16T07:19:34;122.80;;;115.05;;
12296;SDS011;6211;49.124;9.152;2022-10-16T07:22:01;236.18;;;221.20;;
12296;SDS011;6211;49.124;9.152;2022-10-16T07:24:29;194.93;;;182.55;;
12296;SDS011;6211;49.124;9.152;2022-10-16T07:26:58;185.63;;;174.75;;
12296;SDS011;6211;49.124;9.152;2022-10-16T07:29:25;169.38;;;158.45;;
12296;SDS011;6211;49.124;9.152;2022-10-16T07:31:53;237.98;;;223.70;;
12296;SDS011;6211;49.124;9.152;2022-10-16T07:34:20;208.40;;;195.50;;
12296;SDS011;6211;49.124;9.152;2022-10-16T07:36:48;161.50;;;150.77;;
12296;SDS011;6211;49.124;9.152;2022-10-16T07:39:15;221.57;;;207.45;;
12296;SDS011;6211;49.124;9.152;2022-10-16T07:41:42;192.68;;;179.40;;
12296;SDS011;6211;49.124;9.152;2022-10-16T07:44:11;199.32;;;186.45;;
12296;SDS011;6211;49.124;9.152;2022-10-16T07:46:38;235.27;;;220.60;;
12296;SDS011;6211;49.124;9.152;2022-10-16T07:49:05;173.95;;;161.80;;
12296;SDS011;6211;49.124;9.152;2022-10-16T07:51:32;180.43;;;166.88;;
12296;SDS011;6211;49.124;9.152;2022-10-16T07:53:59;208.15;;;194.23;;
12296;SDS011;6211;49.124;9.152;2022-10-16T07:56:26;188.13;;;176.02;;
12296;SDS011;6211;49.124;9.152;2022-10-16T07:58:54;231.32;;;216.68;;
12296;SDS011;6211;49.124;9.152;2022-10-16T08:01:22;216.65;;;201.40;;
12296;SDS011;6211;49.124;9.152;2022-10-16T08:03:50;276.48;;;258.08;;
12296;SDS011;6211;49.124;9.152;2022-10-16T08:06:18;203.57;;;190.50;;
12296;SDS011;6211;49.124;9.152;2022-10-16T08:08:45;189.20;;;176.55;;
12296;SDS011;6211;49.124;9.152;2022-10-16T08:11:12;187.48;;;175.25;;
12296;SDS011;6211;49.124;9.152;2022-10-16T08:13:40;223.68;;;208.80;;
12296;SDS011;6211;49.124;9.152;2022-10-16T08:16:07;166.90;;;156.10;;
12296;SDS011;6211;49.124;9.152;2022-10-16T08:18:36;192.27;;;179.55;;
12296;SDS011;6211;49.124;9.152;2022-10-16T08:21:04;212.75;;;199.10;;
12296;SDS011;6211;49.124;9.152;2022-10-16T08:23:32;201.77;;;189.30;;
12296;SDS011;6211;49.124;9.152;2022-10-16T08:26:01;187.38;;;176.43;;
12296;SDS011;6211;49.124;9.152;2022-10-16T08:28:29;206.57;;;194.23;;
12296;SDS011;6211;49.124;9.152;2022-10-16T08:30:56;211.85;;;199.57;;
12296;SDS011;6211;49.124;9.152;2022-10-16T08:33:23;186.80;;;175.95;;
12296;SDS011;6211;49.124;9.152;2022-10-16T08:35:52;166.13;;;155.88;;
12296;SDS011;6211;49.124;9.152;2022-10-16T08:38:19;202.98;;;190.90;;
12296;SDS011;6211;49.124;9.152;2022-10-16T08:40:46;200.40;;;188.52;;
12296;SDS011;6211;49.124;9.152;2022-10-16T08:46:08;192.23;;;180.88;;
12296;SDS011;6211;49.124;9.152;2022-10-16T08:48:41;216.75;;;204.02;;
12296;SDS011;6211;49.124;9.152;2022-10-16T08:51:12;203.07;;;191.43;;
12296;SDS011;6211;49.124;9.152;2022-10-16T08:53:44;218.77;;;206.00;;
12296;SDS011;6211;49.124;9.152;2022-10-16T08:56:13;174.02;;;163.43;;
12296;SDS011;6211;49.124;9.152;2022-10-16T08:58:40;146.82;;;137.93;;
12296;SDS011;6211;49.124;9.152;2022-10-16T09:01:10;185.57;;;175.35;;
12296;SDS011;6211;49.124;9.152;2022-10-16T09:03:42;169.70;;;159.73;;
12296;SDS011;6211;49.124;9.152;2022-10-16T09:09:11;177.93;;;167.15;;
12296;SDS011;6211;49.124;9.152;2022-10-16T09:11:43;148.57;;;139.60;;
12296;SDS011;6211;49.124;9.152;2022-10-16T09:14:18;131.05;;;123.25;;
12296;SDS011;6211;49.124;9.152;2022-10-16T09:16:48;147.18;;;137.85;;
12296;SDS011;6211;49.124;9.152;2022-10-16T09:19:19;163.65;;;154.55;;
12296;SDS011;6211;49.124;9.152;2022-10-16T09:21:47;185.93;;;174.40;;
12296;SDS011;6211;49.124;9.152;2022-10-16T09:24:18;139.05;;;130.68;;
12296;SDS011;6211;49.124;9.152;2022-10-16T09:26:45;169.13;;;159.07;;
12296;SDS011;6211;49.124;9.152;2022-10-16T09:29:13;125.55;;;117.88;;
12296;SDS011;6211;49.124;9.152;2022-10-16T09:31:40;133.02;;;124.93;;
12296;SDS011;6211;49.124;9.152;2022-10-16T09:34:20;170.38;;;160.50;;
12296;SDS011;6211;49.124;9.152;2022-10-16T09:36:48;172.38;;;162.13;;
12296;SDS011;6211;49.124;9.152;2022-10-16T09:39:16;143.25;;;134.27;;
12296;SDS011;6211;49.124;9.152;2022-10-16T09:41:44;199.48;;;186.85;;
12296;SDS011;6211;49.124;9.152;2022-10-16T09:44:18;200.10;;;188.15;;
12296;SDS011;6211;49.124;9.152;2022-10-16T09:46:46;241.93;;;227.27;;
12296;SDS011;6211;49.124;9.152;2022-10-16T09:49:19;148.25;;;138.98;;
12296;SDS011;6211;49.124;9.152;2022-10-16T09:51:47;112.10;;;104.65;;
12296;SDS011;6211;49.124;9.152;2022-10-16T09:54:15;179.65;;;167.77;;
12296;SDS011;6211;49.124;9.152;2022-10-16T09:56:44;117.88;;;109.63;;
12296;SDS011;6211;49.124;9.152;2022-10-16T09:59:15;150.35;;;141.02;;
12296;SDS011;6211;49.124;9.152;2022-10-16T10:01:43;159.63;;;149.07;;
12296;SDS011;6211;49.124;9.152;2022-10-16T10:04:11;104.82;;;97.97;;
12296;SDS011;6211;49.124;9.152;2022-10-16T10:06:41;103.00;;;95.63;;
12296;SDS011;6211;49.124;9.152;2022-10-16T10:09:16;109.90;;;101.88;;
12296;SDS011;6211;49.124;9.152;2022-10-16T10:11:46;89.03;;;83.38;;
12296;SDS011;6211;49.124;9.152;2022-10-16T10:14:22;96.53;;;89.13;;
12296;SDS011;6211;49.124;9.152;2022-10-16T10:16:50;79.95;;;73.38;;
12296;SDS011;6211;49.124;9.152;2022-10-16T10:19:18;51.08;;;47.90;;
12296;SDS011;6211;49.124;9.152;2022-10-16T10:21:45;82.68;;;77.40;;
12296;SDS011;6211;49.124;9.152;2022-10-16T10:24:13;93.82;;;87.10;;
12296;SDS011;6211;49.124;9.152;2022-10-16T10:26:42;95.68;;;88.40;;
12296;SDS011;6211;49.124;9.152;2022-10-16T10:29:14;82.32;;;76.43;;
12296;SDS011;6211;49.124;9.152;2022-10-16T10:31:50;69.90;;;64.53;;
12296;SDS011;6211;49.124;9.152;2022-10-16T10:34:32;100.05;;;92.75;;
12296;SDS011;6211;49.124;9.152;2022-10-16T10:37:02;26.50;;;24.42;;
12296;SDS011;6211;49.124;9.152;2022-10-16T10:39:32;69.25;;;63.78;;
12296;SDS011;6211;49.124;9.152;2022-10-16T10:42:05;74.00;;;68.20;;
12296;SDS011;6211;49.124;9.152;2022-10-16T10:44:41;44.75;;;41.25;;
12296;SDS011;6211;49.124;9.152;2022-10-16T10:47:13;59.40;;;54.22;;
12296;SDS011;6211;49.124;9.152;2022-10-16T10:49:47;41.75;;;38.47;;
12296;SDS011;6211;49.124;9.152;2022-10-16T10:52:27;51.42;;;47.20;;
12296;SDS011;6211;49.124;9.152;2022-10-16T10:54:58;36.33;;;33.30;;
12296;SDS011;6211;49.124;9.152;2022-10-16T10:57:30;42.55;;;38.95;;
12296;SDS011;6211;49.124;9.152;2022-10-16T11:00:15;38.53;;;35.53;;
12296;SDS011;6211;49.124;9.152;2022-10-16T11:02:48;42.55;;;39.28;;
12296;SDS011;6211;49.124;9.152;2022-10-16T11:08:03;39.53;;;36.65;;
12296;SDS011;6211;49.124;9.152;2022-10-16T11:10:34;69.00;;;64.13;;
12296;SDS011;6211;49.124;9.152;2022-10-16T11:13:09;43.03;;;40.17;;
12296;SDS011;6211;49.124;9.152;2022-10-16T11:15:39;53.13;;;49.00;;
12296;SDS011;6211;49.124;9.152;2022-10-16T11:18:08;70.93;;;65.15;;
12296;SDS011;6211;49.124;9.152;2022-10-16T11:20:39;55.88;;;51.28;;
12296;SDS011;6211;49.124;9.152;2022-10-16T11:23:10;71.30;;;66.13;;
12296;SDS011;6211;49.124;9.152;2022-10-16T11:25:38;90.43;;;83.38;;
12296;SDS011;6211;49.124;9.152;2022-10-16T11:28:07;52.65;;;48.53;;
12296;SDS011;6211;49.124;9.152;2022-10-16T11:30:41;29.13;;;27.42;;
12296;SDS011;6211;49.124;9.152;2022-10-16T11:33:15;28.83;;;27.02;;
12296;SDS011;6211;49.124;9.152;2022-10-16T11:35:46;21.67;;;20.45;;
12296;SDS011;6211;49.124;9.152;2022-10-16T11:38:15;33.85;;;32.05;;
12296;SDS011;6211;49.124;9.152;2022-10-16T11:40:49;22.25;;;21.10;;
12296;SDS011;6211;49.124;9.152;2022-10-16T11:43:20;16.77;;;16.05;;
12296;SDS011;6211;49.124;9.152;2022-10-16T11:45:51;18.27;;;17.38;;
12296;SDS011;6211;49.124;9.152;2022-10-16T11:48:21;15.60;;;14.90;;
12296;SDS011;6211;49.124;9.152;2022-10-16T11:50:52;25.05;;;23.77;;
12296;SDS011;6211;49.124;9.152;2022-10-16T11:53:22;21.73;;;20.65;;
12296;SDS011;6211;49.124;9.152;2022-10-16T11:55:50;18.27;;;17.38;;
12296;SDS011;6211;49.124;9.152;2022-10-16T11:58:20;16.27;;;15.50;;
12296;SDS011;6211;49.124;9.152;2022-10-16T12:00:53;14.57;;;13.95;;
12296;SDS011;6211;49.124;9.152;2022-10-16T12:03:22;9.13;;;8.65;;
12296;SDS011;6211;49.124;9.152;2022-10-16T12:05:55;17.83;;;16.90;;
12296;SDS011;6211;49.124;9.152;2022-10-16T12:08:25;10.02;;;9.55;;
12296;SDS011;6211;49.124;9.152;2022-10-16T12:10:53;10.63;;;10.13;;
12296;SDS011;6211;49.124;9.152;2022-10-16T12:13:27;15.07;;;14.38;;
12296;SDS011;6211;49.124;9.152;2022-10-16T12:16:05;10.18;;;9.70;;
12296;SDS011;6211;49.124;9.152;2022-10-16T12:18:32;9.40;;;8.88;;
12296;SDS011;6211;49.124;9.152;2022-10-16T12:20:59;9.35;;;8.85;;
12296;SDS011;6211;49.124;9.152;2022-10-16T12:23:30;10.10;;;9.50;;
12296;SDS011;6211;49.124;9.152;2022-10-16T12:25:58;10.57;;;10.18;;
12296;SDS011;6211;49.124;9.152;2022-10-16T12:28:27;7.40;;;7.10;;
12296;SDS011;6211;49.124;9.152;2022-10-16T12:30:56;13.52;;;12.95;;
12296;SDS011;6211;49.124;9.152;2022-10-16T12:33:25;13.80;;;13.18;;
12296;SDS011;6211;49.124;9.152;2022-10-16T12:35:53;14.35;;;13.68;;
12296;SDS011;6211;49.124;9.152;2022-10-16T12:38:21;16.50;;;15.70;;
12296;SDS011;6211;49.124;9.152;2022-10-16T12:40:54;14.15;;;13.45;;
12296;SDS011;6211;49.124;9.152;2022-10-16T12:43:25;9.32;;;8.93;;
12296;SDS011;6211;49.124;9.152;2022-10-16T12:45:59;10.85;;;10.35;;
12296;SDS011;6211;49.124;9.152;2022-10-16T12:48:27;9.85;;;9.45;;
12296;SDS011;6211;49.124;9.152;2022-10-16T12:50:55;10.32;;;9.85;;
12296;SDS011;6211;49.124;9.152;2022-10-16T12:53:23;13.57;;;13.05;;
12296;SDS011;6211;49.124;9.152;2022-10-16T12:55:54;9.30;;;8.90;;
12296;SDS011;6211;49.124;9.152;2022-10-16T13:01:07;10.82;;;10.35;;
12296;SDS011;6211;49.124;9.152;2022-10-16T13:03:46;6.63;;;6.38;;
12296;SDS011;6211;49.124;9.152;2022-10-16T13:06:19;6.78;;;6.38;;
12296;SDS011;6211;49.124;9.152;2022-10-16T13:08:53;6.20;;;5.90;;
12296;SDS011;6211;49.124;9.152;2022-10-16T13:11:24;6.90;;;6.50;;
12296;SDS011;6211;49.124;9.152;2022-10-16T13:13:58;7.38;;;7.03;;
12296;SDS011;6211;49.124;9.152;2022-10-16T13:16:28;8.02;;;7.63;;
12296;SDS011;6211;49.124;9.152;2022-10-16T13:19:01;17.70;;;15.88;;
12296;SDS011;6211;49.124;9.152;2022-10-16T13:21:35;15.90;;;14.50;;
12296;SDS011;6211;49.124;9.152;2022-10-16T13:24:09;8.13;;;6.75;;
12296;SDS011;6211;49.124;9.152;2022-10-16T13:26:40;9.88;;;9.38;;
12296;SDS011;6211;49.124;9.152;2022-10-16T13:29:10;11.82;;;11.13;;
12296;SDS011;6211;49.124;9.152;2022-10-16T13:31:38;16.13;;;14.50;;
12296;SDS011;6211;49.124;9.152;2022-10-16T13:34:09;15.93;;;14.00;;
12296;SDS011;6211;49.124;9.152;2022-10-16T13:36:43;8.70;;;8.05;;
12296;SDS011;6211;49.124;9.152;2022-10-16T13:39:11;11.48;;;10.80;;
12296;SDS011;6211;49.124;9.152;2022-10-16T13:41:39;6.47;;;6.13;;
12296;SDS011;6211;49.124;9.152;2022-10-16T13:44:11;3.92;;;3.63;;
12296;SDS011;6211;49.124;9.152;2022-10-16T13:46:39;9.02;;;8.40;;
12296;SDS011;6211;49.124;9.152;2022-10-16T13:49:13;5.55;;;5.32;;
12296;SDS011;6211;49.124;9.152;2022-10-16T13:51:41;9.82;;;5.97;;
12296;SDS011;6211;49.124;9.152;2022-10-16T13:54:09;11.02;;;10.45;;
12296;SDS011;6211;49.124;9.152;2022-10-16T13:56:38;6.70;;;6.43;;
12296;SDS011;6211;49.124;9.152;2022-10-16T13:59:06;3.35;;;3.17;;
12296;SDS011;6211;49.124;9.152;2022-10-16T14:01:34;6.93;;;6.32;;
12296;SDS011;6211;49.124;9.152;2022-10-16T14:04:02;3.67;;;3.50;;
12296;SDS011;6211;49.124;9.152;2022-10-16T14:06:32;7.57;;;7.18;;
12296;SDS011;6211;49.124;9.152;2022-10-16T14:09:00;9.15;;;8.65;;
12296;SDS011;6211;49.124;9.152;2022-10-16T14:11:28;19.95;;;18.38;;
12296;SDS011;6211;49.124;9.152;2022-10-16T14:13:56;10.63;;;10.07;;
12296;SDS011;6211;49.124;9.152;2022-10-16T14:16:23;12.43;;;11.82;;
12296;SDS011;6211;49.124;9.152;2022-10-16T14:18:55;7.22;;;6.93;;
12296;SDS011;6211;49.124;9.152;2022-10-16T14:21:22;7.55;;;7.18;;
12296;SDS011;6211;49.124;9.152;2022-10-16T14:23:52;6.68;;;6.28;;
12296;SDS011;6211;49.124;9.152;2022-10-16T14:26:21;4.32;;;4.13;;
12296;SDS011;6211;49.124;9.152;2022-10-16T14:28:49;5.43;;;5.13;;
12296;SDS011;6211;49.124;9.152;2022-10-16T14:31:28;7.45;;;7.05;;
12296;SDS011;6211;49.124;9.152;2022-10-16T14:33:55;5.38;;;5.13;;
12296;SDS011;6211;49.124;9.152;2022-10-16T14:36:23;5.75;;;5.43;;
12296;SDS011;6211;49.124;9.152;2022-10-16T14:38:56;5.35;;;4.93;;
12296;SDS011;6211;49.124;9.152;2022-10-16T14:41:23;4.60;;;4.40;;
12296;SDS011;6211;49.124;9.152;2022-10-16T14:43:51;5.30;;;5.05;;